Time;durP1;ratioP1;P1;durP2;ratioP2;P2;SDS_P1;SDS_P2;PMS_P1;PMS_P2;Temp;Humidity;BMP_temperature;BMP_pressure;BME280_temperature;BME280_humidity;BME280_pressure;Samples;Min_cycle;Max_cycle;Signal;HPM_P1;HPM_P2
2021/12/05 00:23:46;;;;;;;2.88;1.05;;;;;;;;;;5114244;28;20034;-66
2021/12/05 00:26:16;;;;;;;2.25;0.82;;;;;;;;;;5113920;28;20065;-66
2021/12/05 00:29:05;;;;;;;2.90;1.10;;;;;;;;;;5095439;28;20046;-65
2021/12/05 00:39:49;;;;;;;3.65;1.08;;;;;;;;;;5114022;28;20110;-67
2021/12/05 00:43:37;;;;;;;4.38;0.95;;;;;;;;;;5113394;28;20043;-67
2021/12/05 00:58:25;;;;;;;4.22;0.73;;;;;;;;;;5113631;28;20030;-67
2021/12/05 01:12:07;;;;;;;5.07;0.98;;;;;;;;;;5113171;28;20064;-64
2021/12/05 01:17:01;;;;;;;3.45;0.90;;;;;;;;;;5113430;28;20405;-66
2021/12/05 01:19:30;;;;;;;3.35;0.93;;;;;;;;;;5113086;28;20015;-66
2021/12/05 01:21:58;;;;;;;5.38;1.00;;;;;;;;;;5113110;28;20382;-65
2021/12/05 01:27:17;;;;;;;4.07;1.05;;;;;;;;;;5113226;28;20118;-66
2021/12/05 01:29:52;;;;;;;3.65;0.93;;;;;;;;;;5113422;28;20045;-65
2021/12/05 01:32:52;;;;;;;2.38;0.98;;;;;;;;;;5112935;28;20020;-65
2021/12/05 01:51:30;;;;;;;1.50;0.80;;;;;;;;;;5113106;28;20058;-68
2021/12/05 01:54:02;;;;;;;4.55;1.02;;;;;;;;;;5112032;28;20035;-66
2021/12/05 02:12:39;;;;;;;6.45;1.17;;;;;;;;;;5116543;28;20027;-65
2021/12/05 02:31:37;;;;;;;5.10;1.30;;;;;;;;;;5116068;28;20047;-65
2021/12/05 02:39:44;;;;;;;12.75;1.17;;;;;;;;;;5116346;28;20557;-66
2021/12/05 02:42:13;;;;;;;7.03;1.40;;;;;;;;;;5115720;28;20047;-67
2021/12/05 02:44:40;;;;;;;5.97;1.15;;;;;;;;;;5112708;28;20016;-67
2021/12/05 02:47:12;;;;;;;5.85;1.20;;;;;;;;;;5095181;28;20097;-67
2021/12/05 02:49:40;;;;;;;5.25;1.10;;;;;;;;;;5108404;28;20111;-64
2021/12/05 02:52:08;;;;;;;8.93;1.55;;;;;;;;;;5115382;28;20035;-65
2021/12/05 02:54:38;;;;;;;3.83;1.20;;;;;;;;;;5097592;28;20035;-65
2021/12/05 02:57:05;;;;;;;3.85;1.10;;;;;;;;;;5115878;28;20024;-67
2021/12/05 03:02:11;;;;;;;6.97;1.30;;;;;;;;;;5115516;28;20050;-66
2021/12/05 03:04:37;;;;;;;3.97;1.10;;;;;;;;;;5115491;28;20026;-65
2021/12/05 03:07:10;;;;;;;5.40;1.00;;;;;;;;;;5115482;28;20115;-65
2021/12/05 03:09:37;;;;;;;4.82;1.50;;;;;;;;;;5114935;28;20015;-66
2021/12/05 03:12:03;;;;;;;2.88;0.98;;;;;;;;;;5096767;28;20062;-66
2021/12/05 03:14:30;;;;;;;4.47;1.35;;;;;;;;;;5115415;28;20031;-66
2021/12/05 03:16:56;;;;;;;1.77;0.80;;;;;;;;;;5115006;28;20016;-66
2021/12/05 03:19:22;;;;;;;5.30;1.30;;;;;;;;;;5115167;28;20023;-67
2021/12/05 03:21:49;;;;;;;4.15;0.80;;;;;;;;;;5115132;28;20532;-67
2021/12/05 03:24:16;;;;;;;3.88;1.50;;;;;;;;;;5115369;28;20035;-67
2021/12/05 03:26:43;;;;;;;3.47;0.88;;;;;;;;;;5115138;28;20100;-66
2021/12/05 03:29:11;;;;;;;2.38;0.90;;;;;;;;;;5114965;28;20027;-65
2021/12/05 03:31:37;;;;;;;3.42;1.05;;;;;;;;;;5115083;28;20034;-67
2021/12/05 03:34:04;;;;;;;5.72;1.10;;;;;;;;;;5114693;28;20035;-65
2021/12/05 03:36:31;;;;;;;4.07;1.30;;;;;;;;;;5114704;28;20020;-65
2021/12/05 03:38:57;;;;;;;2.47;1.10;;;;;;;;;;5114741;28;20070;-66
2021/12/05 03:41:23;;;;;;;5.07;1.00;;;;;;;;;;5114751;28;20371;-67
2021/12/05 03:43:51;;;;;;;4.45;1.20;;;;;;;;;;5114480;28;20048;-66
2021/12/05 03:46:17;;;;;;;3.25;0.90;;;;;;;;;;5095785;28;20020;-66
2021/12/05 03:48:45;;;;;;;3.38;1.15;;;;;;;;;;5093890;28;20101;-67
2021/12/05 03:51:13;;;;;;;2.63;1.10;;;;;;;;;;5093012;28;20154;-66
2021/12/05 03:53:39;;;;;;;4.20;1.00;;;;;;;;;;5093986;28;20043;-66
2021/12/05 03:56:08;;;;;;;2.88;0.82;;;;;;;;;;5094002;28;20032;-66
2021/12/05 03:58:34;;;;;;;1.55;0.80;;;;;;;;;;5092619;28;20733;-66
2021/12/05 04:01:01;;;;;;;4.07;0.93;;;;;;;;;;5093940;28;20024;-66
2021/12/05 04:03:28;;;;;;;9.70;1.00;;;;;;;;;;5108255;28;20023;-66
2021/12/05 04:05:54;;;;;;;6.30;1.05;;;;;;;;;;5114150;28;20027;-65
2021/12/05 04:08:21;;;;;;;1.40;0.70;;;;;;;;;;5113815;28;20020;-67
2021/12/05 04:10:49;;;;;;;4.25;1.05;;;;;;;;;;5114135;28;20028;-66
2021/12/05 04:13:15;;;;;;;4.30;0.90;;;;;;;;;;5113969;28;20034;-67
2021/12/05 04:15:42;;;;;;;2.45;0.98;;;;;;;;;;5114033;28;20034;-66
2021/12/05 04:18:08;;;;;;;3.03;1.10;;;;;;;;;;5113845;28;20459;-67
2021/12/05 04:20:34;;;;;;;3.40;1.00;;;;;;;;;;5113851;28;20035;-67
2021/12/05 04:23:00;;;;;;;6.60;1.00;;;;;;;;;;5113788;28;20416;-66
2021/12/05 04:25:26;;;;;;;2.15;0.80;;;;;;;;;;5095684;28;20024;-66
2021/12/05 04:27:54;;;;;;;2.58;1.02;;;;;;;;;;5114085;28;20019;-67
2021/12/05 04:30:21;;;;;;;2.95;0.80;;;;;;;;;;5113932;28;20467;-67
2021/12/05 04:32:47;;;;;;;2.50;0.75;;;;;;;;;;5113653;28;20031;-67
2021/12/05 04:35:13;;;;;;;3.70;0.95;;;;;;;;;;5113842;28;20072;-71
2021/12/05 04:37:39;;;;;;;12.15;0.90;;;;;;;;;;5113927;28;20024;-67
2021/12/05 04:40:06;;;;;;;12.88;1.10;;;;;;;;;;5113563;28;20028;-65
2021/12/05 04:42:32;;;;;;;6.03;0.95;;;;;;;;;;5113356;28;20054;-67
2021/12/05 04:45:00;;;;;;;7.05;1.08;;;;;;;;;;5105644;28;20016;-67
2021/12/05 04:47:26;;;;;;;13.23;1.58;;;;;;;;;;5092948;28;20475;-66
2021/12/05 04:49:52;;;;;;;14.18;1.00;;;;;;;;;;5093052;28;20028;-67
2021/12/05 04:52:18;;;;;;;5.75;1.17;;;;;;;;;;5091519;28;20016;-67
2021/12/05 04:54:44;;;;;;;11.23;0.90;;;;;;;;;;5093072;28;20032;-67
2021/12/05 04:57:10;;;;;;;5.70;0.90;;;;;;;;;;5093156;28;20020;-67
2021/12/05 04:59:38;;;;;;;2.78;1.00;;;;;;;;;;5093038;28;20035;-67
2021/12/05 05:02:06;;;;;;;3.92;0.73;;;;;;;;;;5093207;28;20056;-67
2021/12/05 05:04:38;;;;;;;4.13;0.60;;;;;;;;;;5092998;28;20028;-66
2021/12/05 05:07:07;;;;;;;4.78;0.70;;;;;;;;;;5093106;28;20034;-67
2021/12/05 05:09:33;;;;;;;6.50;0.70;;;;;;;;;;5092972;28;20016;-67
2021/12/05 05:12:00;;;;;;;7.32;1.00;;;;;;;;;;5093333;28;20074;-67
2021/12/05 05:14:27;;;;;;;3.28;0.60;;;;;;;;;;5092784;28;20495;-66
2021/12/05 05:16:54;;;;;;;9.13;0.93;;;;;;;;;;5092765;28;20017;-67
2021/12/05 05:19:26;;;;;;;4.00;0.77;;;;;;;;;;5092768;28;20047;-67
2021/12/05 05:22:04;;;;;;;4.50;0.70;;;;;;;;;;5093019;28;20017;-66
2021/12/05 05:27:42;;;;;;;5.45;0.80;;;;;;;;;;5092538;28;20035;-65
2021/12/05 05:39:18;;;;;;;2.65;0.40;;;;;;;;;;5097143;28;20485;-65
2021/12/05 05:49:15;;;;;;;1.25;0.60;;;;;;;;;;5096642;28;20071;-65
2021/12/05 05:51:42;;;;;;;2.35;0.50;;;;;;;;;;5096304;28;20372;-65
2021/12/05 05:54:08;;;;;;;1.48;0.55;;;;;;;;;;5095912;28;20471;-66
2021/12/05 05:56:35;;;;;;;0.95;0.50;;;;;;;;;;5096133;28;20085;-66
2021/12/05 05:59:07;;;;;;;1.33;0.50;;;;;;;;;;5096324;28;20024;-65
2021/12/05 06:04:03;;;;;;;3.15;0.40;;;;;;;;;;5096428;28;20047;-65
2021/12/05 06:06:31;;;;;;;1.50;0.57;;;;;;;;;;5095898;28;20027;-66
2021/12/05 06:08:57;;;;;;;0.80;0.50;;;;;;;;;;5096134;28;20031;-66
2021/12/05 06:11:23;;;;;;;1.77;0.60;;;;;;;;;;5096121;28;20036;-65
2021/12/05 06:13:50;;;;;;;0.70;0.40;;;;;;;;;;5096066;28;20495;-65
2021/12/05 06:16:16;;;;;;;0.60;0.50;;;;;;;;;;5096279;28;20405;-65
2021/12/05 06:18:43;;;;;;;0.47;0.40;;;;;;;;;;5095932;28;20031;-65
2021/12/05 06:21:09;;;;;;;1.77;0.60;;;;;;;;;;5096010;28;20419;-66
2021/12/05 06:23:36;;;;;;;1.05;0.57;;;;;;;;;;5095775;28;20021;-66
2021/12/05 06:26:03;;;;;;;0.77;0.40;;;;;;;;;;5077611;28;20482;-65
2021/12/05 06:28:56;;;;;;;0.80;0.40;;;;;;;;;;5095906;28;20057;-66
2021/12/05 06:31:28;;;;;;;49.75;1.35;;;;;;;;;;5094907;28;20058;-64
2021/12/05 06:37:13;;;;;;;15.23;0.60;;;;;;;;;;5096015;28;20035;-63
2021/12/05 06:39:47;;;;;;;17.35;0.90;;;;;;;;;;5095408;28;20024;-63
2021/12/05 06:47:31;;;;;;;7.43;0.55;;;;;;;;;;5095570;28;20088;-63
2021/12/05 06:49:57;;;;;;;6.65;0.60;;;;;;;;;;5095155;28;20102;-63
2021/12/05 06:52:24;;;;;;;5.13;0.50;;;;;;;;;;5095269;28;20102;-64
2021/12/05 06:54:50;;;;;;;1.00;0.40;;;;;;;;;;5095209;28;20042;-63
2021/12/05 06:57:17;;;;;;;7.93;0.70;;;;;;;;;;5095231;28;20020;-63
2021/12/05 06:59:45;;;;;;;0.55;0.40;;;;;;;;;;5076932;28;20024;-63
2021/12/05 07:02:11;;;;;;;7.35;0.65;;;;;;;;;;5094931;28;20103;-63
2021/12/05 07:05:40;;;;;;;2.90;0.60;;;;;;;;;;5095460;28;20026;-66
2021/12/05 07:07:27;;;;;;;6.28;0.52;;;;;;;;;;5083805;28;20028;-66
2021/12/05 07:09:53;;;;;;;3.05;0.52;;;;;;;;;;5094812;28;20020;-64
2021/12/05 07:12:54;;;;;;;0.60;0.50;;;;;;;;;;5094903;28;20099;-63
2021/12/05 07:15:32;;;;;;;9.25;0.80;;;;;;;;;;5094628;28;20403;-63
2021/12/05 07:21:02;;;;;;;7.93;0.73;;;;;;;;;;5094786;28;20028;-63
2021/12/05 07:23:44;;;;;;;5.88;0.70;;;;;;;;;;5094676;28;20093;-65
2021/12/05 07:26:15;;;;;;;7.32;0.80;;;;;;;;;;5076789;28;20521;-64
2021/12/05 07:42:27;;;;;;;8.65;0.90;;;;;;;;;;5100536;28;20054;-68
2021/12/05 07:44:55;;;;;;;6.47;0.80;;;;;;;;;;5088505;28;20015;-63
2021/12/05 07:47:23;;;;;;;10.45;0.68;;;;;;;;;;5107266;27;20516;-64
2021/12/05 07:49:51;;;;;;;10.55;1.17;;;;;;;;;;5075566;28;20360;-64
2021/12/05 07:52:22;;;;;;;10.63;0.80;;;;;;;;;;5103768;28;20053;-63
2021/12/05 07:54:51;;;;;;;13.30;0.75;;;;;;;;;;5114460;28;20034;-64
2021/12/05 07:57:22;;;;;;;8.93;0.70;;;;;;;;;;5113845;28;20111;-64
2021/12/05 08:16:11;;;;;;;4.45;0.63;;;;;;;;;;5114093;28;20516;-64
2021/12/05 08:18:37;;;;;;;5.32;0.77;;;;;;;;;;5114004;28;20115;-63
2021/12/05 08:21:05;;;;;;;8.35;0.70;;;;;;;;;;5113659;28;20579;-64
2021/12/05 08:23:31;;;;;;;2.53;1.33;;;;;;;;;;5112827;28;20036;-65
2021/12/05 08:26:08;;;;;;;8.18;0.70;;;;;;;;;;5113636;28;20099;-65
2021/12/05 08:29:00;;;;;;;1.92;0.70;;;;;;;;;;5113916;28;20031;-64
2021/12/05 08:31:44;;;;;;;7.15;0.70;;;;;;;;;;5095096;28;20428;-64
2021/12/05 09:38:39;;;;;;;27.58;2.20;;;;;;;;;;5113166;28;20130;-66
2021/12/05 10:09:18;;;;;;;6.07;1.10;;;;;;;;;;5092639;28;20027;-67
2021/12/05 10:11:58;;;;;;;8.25;1.13;;;;;;;;;;5073960;28;20560;-67
2021/12/05 10:36:08;;;;;;;16.05;0.80;;;;;;;;;;5095808;28;20089;-68
2021/12/05 10:38:44;;;;;;;1.23;0.80;;;;;;;;;;5095214;28;20491;-67
2021/12/05 10:42:24;;;;;;;2.05;0.70;;;;;;;;;;5095149;28;20027;-67
2021/12/05 10:44:09;;;;;;;2.78;0.80;;;;;;;;;;5081576;28;20042;-67
2021/12/05 10:46:35;;;;;;;3.00;0.80;;;;;;;;;;5080630;28;20039;-66
2021/12/05 10:49:06;;;;;;;2.40;0.75;;;;;;;;;;5094983;28;20103;-67
2021/12/05 10:51:41;;;;;;;1.27;0.70;;;;;;;;;;5094899;28;20024;-67
2021/12/05 10:54:09;;;;;;;5.72;0.82;;;;;;;;;;5094985;28;20063;-66
2021/12/05 10:56:47;;;;;;;1.60;0.70;;;;;;;;;;5094643;28;20028;-67
2021/12/05 10:59:16;;;;;;;1.90;0.85;;;;;;;;;;5094781;28;20016;-66
2021/12/05 11:01:44;;;;;;;2.97;0.80;;;;;;;;;;5102393;28;20030;-66
2021/12/05 11:04:12;;;;;;;2.42;0.70;;;;;;;;;;5089093;28;20036;-66
2021/12/05 11:06:50;;;;;;;1.00;0.70;;;;;;;;;;5095671;28;20023;-67
2021/12/05 11:09:16;;;;;;;1.92;0.80;;;;;;;;;;5089881;28;20040;-67
2021/12/05 11:11:44;;;;;;;2.92;0.82;;;;;;;;;;5055464;28;20480;-66
2021/12/05 11:14:12;;;;;;;2.42;0.82;;;;;;;;;;5075401;28;20040;-67
2021/12/05 11:16:38;;;;;;;5.07;0.90;;;;;;;;;;5073146;28;20077;-67
2021/12/05 11:19:27;;;;;;;2.83;0.70;;;;;;;;;;5076163;28;20025;-67
2021/12/05 11:21:58;;;;;;;1.20;0.77;;;;;;;;;;5063678;28;20055;-67
2021/12/05 11:24:25;;;;;;;3.60;0.70;;;;;;;;;;5080868;28;20035;-67
2021/12/05 11:27:03;;;;;;;4.97;0.75;;;;;;;;;;5093989;28;20040;-67
2021/12/05 11:29:40;;;;;;;2.78;0.70;;;;;;;;;;5096183;28;20023;-68
2021/12/05 11:32:08;;;;;;;2.20;0.80;;;;;;;;;;5091365;28;20036;-66
2021/12/05 11:34:34;;;;;;;1.98;0.85;;;;;;;;;;5074765;28;20032;-67
2021/12/05 11:37:00;;;;;;;3.50;0.90;;;;;;;;;;5093108;28;20085;-66
2021/12/05 11:39:26;;;;;;;3.67;1.10;;;;;;;;;;5093416;28;20036;-67
2021/12/05 11:41:52;;;;;;;2.08;0.73;;;;;;;;;;5094560;28;20020;-66
2021/12/05 11:44:20;;;;;;;2.92;0.68;;;;;;;;;;5111309;28;20024;-66
2021/12/05 11:46:46;;;;;;;1.33;0.80;;;;;;;;;;5097095;28;20043;-66
2021/12/05 11:49:16;;;;;;;1.30;0.70;;;;;;;;;;5093667;28;20035;-67
2021/12/05 11:51:47;;;;;;;3.10;0.88;;;;;;;;;;5109567;28;20544;-66
2021/12/05 11:54:13;;;;;;;5.68;0.88;;;;;;;;;;5114113;28;20057;-66
2021/12/05 11:56:42;;;;;;;9.55;0.85;;;;;;;;;;5113775;28;20053;-66
2021/12/05 11:59:11;;;;;;;6.35;0.82;;;;;;;;;;5111745;28;20131;-66
2021/12/05 12:01:38;;;;;;;5.20;0.98;;;;;;;;;;5097910;28;20042;-66
2021/12/05 12:04:05;;;;;;;3.53;0.60;;;;;;;;;;5093844;28;20490;-66
2021/12/05 12:06:31;;;;;;;5.28;1.00;;;;;;;;;;5093648;28;20432;-66
2021/12/05 12:08:57;;;;;;;3.83;0.90;;;;;;;;;;5093678;28;20333;-66
2021/12/05 12:11:24;;;;;;;3.53;0.77;;;;;;;;;;5075385;28;20031;-66
2021/12/05 12:13:51;;;;;;;4.30;0.80;;;;;;;;;;5093122;28;20059;-66
2021/12/05 12:16:18;;;;;;;3.70;0.90;;;;;;;;;;5092634;28;20016;-66
2021/12/05 12:18:47;;;;;;;3.83;0.77;;;;;;;;;;5093435;28;20032;-66
2021/12/05 12:21:26;;;;;;;3.13;1.23;;;;;;;;;;5093463;28;20051;-66
2021/12/05 12:23:53;;;;;;;2.65;0.90;;;;;;;;;;5093446;28;20024;-66
2021/12/05 12:26:20;;;;;;;4.30;0.98;;;;;;;;;;5075137;28;20024;-66
2021/12/05 12:28:46;;;;;;;2.40;0.80;;;;;;;;;;5093236;28;20095;-66
2021/12/05 12:31:34;;;;;;;6.82;1.00;;;;;;;;;;5093047;28;20454;-66
2021/12/05 12:34:05;;;;;;;5.60;0.85;;;;;;;;;;5072002;28;20040;-66
2021/12/05 12:36:36;;;;;;;3.90;0.88;;;;;;;;;;5072299;28;20089;-66
2021/12/05 12:39:04;;;;;;;1.25;0.77;;;;;;;;;;5054582;28;20052;-66
2021/12/05 12:41:31;;;;;;;3.00;0.77;;;;;;;;;;5072638;28;20403;-66
2021/12/05 12:44:01;;;;;;;1.83;0.80;;;;;;;;;;5072097;28;20049;-66
2021/12/05 12:46:27;;;;;;;1.27;0.70;;;;;;;;;;5072105;28;20020;-66
2021/12/05 12:48:56;;;;;;;9.38;0.70;;;;;;;;;;5092941;28;20024;-66
2021/12/05 12:51:31;;;;;;;3.33;0.90;;;;;;;;;;5074462;28;20042;-65
2021/12/05 12:53:58;;;;;;;1.90;0.80;;;;;;;;;;5092794;28;20057;-65
2021/12/05 12:56:24;;;;;;;2.08;0.80;;;;;;;;;;5092741;28;20028;-65
2021/12/05 12:58:57;;;;;;;3.90;0.90;;;;;;;;;;5074564;28;20032;-66
2021/12/05 13:01:52;;;;;;;;;;;;;;;;;;5093358;28;20105;-66
2021/12/05 13:10:04;;;;;;;3.22;0.98;;;;;;;;;;5092754;28;20085;-66
2021/12/05 13:12:44;;;;;;;0.88;0.70;;;;;;;;;;5074294;28;20463;-67
2021/12/05 13:15:12;;;;;;;8.48;0.95;;;;;;;;;;5086092;28;20108;-66
2021/12/05 13:17:43;;;;;;;1.02;0.70;;;;;;;;;;5074273;28;20545;-67
2021/12/05 13:20:10;;;;;;;3.13;0.73;;;;;;;;;;5089596;28;20050;-67
2021/12/05 13:22:55;;;;;;;2.88;0.80;;;;;;;;;;5092365;28;20050;-67
2021/12/05 13:25:21;;;;;;;2.53;0.90;;;;;;;;;;5074312;28;20150;-67
2021/12/05 13:27:47;;;;;;;1.83;0.80;;;;;;;;;;5092272;28;20054;-67
2021/12/05 13:30:27;;;;;;;1.52;0.80;;;;;;;;;;5092156;28;20032;-67
2021/12/05 13:33:12;;;;;;;1.85;0.70;;;;;;;;;;5091506;28;20075;-67
2021/12/05 13:35:40;;;;;;;1.38;0.75;;;;;;;;;;5091918;28;20042;-66
2021/12/05 13:38:06;;;;;;;0.65;0.63;;;;;;;;;;5090283;28;20016;-67
2021/12/05 13:40:33;;;;;;;2.13;0.70;;;;;;;;;;5076397;28;20027;-66
2021/12/05 13:43:05;;;;;;;1.80;0.60;;;;;;;;;;5098996;28;20043;-66
2021/12/05 13:45:43;;;;;;;0.82;0.80;;;;;;;;;;5112298;28;20016;-66
2021/12/05 13:48:17;;;;;;;1.95;0.82;;;;;;;;;;5110831;28;20081;-66
2021/12/05 13:50:43;;;;;;;2.03;0.73;;;;;;;;;;5112543;28;20016;-67
2021/12/05 13:53:09;;;;;;;1.67;0.80;;;;;;;;;;5111773;28;20069;-66
2021/12/05 13:55:36;;;;;;;2.35;0.80;;;;;;;;;;5097137;28;20060;-64
2021/12/05 13:58:15;;;;;;;3.08;0.80;;;;;;;;;;5120768;27;20076;-67
2021/12/05 14:00:43;;;;;;;3.75;0.90;;;;;;;;;;5116052;28;20478;-65
2021/12/05 14:03:10;;;;;;;3.60;0.90;;;;;;;;;;5096051;28;20058;-65
2021/12/05 14:05:37;;;;;;;4.38;1.00;;;;;;;;;;5115029;28;20055;-66
2021/12/05 14:08:03;;;;;;;10.10;0.90;;;;;;;;;;5108636;28;20520;-68
2021/12/05 14:10:43;;;;;;;9.23;1.00;;;;;;;;;;5110746;28;20050;-65
2021/12/05 14:13:10;;;;;;;9.32;1.00;;;;;;;;;;5117228;28;20019;-66
2021/12/05 14:15:37;;;;;;;6.55;1.00;;;;;;;;;;5117378;28;20442;-65
2021/12/05 14:18:03;;;;;;;9.63;1.15;;;;;;;;;;5116123;28;20019;-65
2021/12/05 14:20:29;;;;;;;9.32;1.10;;;;;;;;;;5096378;28;20032;-65
2021/12/05 14:22:57;;;;;;;9.80;0.98;;;;;;;;;;5096718;28;20054;-65
2021/12/05 14:25:24;;;;;;;3.40;1.02;;;;;;;;;;5096972;28;20532;-67
2021/12/05 14:28:01;;;;;;;7.43;1.30;;;;;;;;;;5115604;28;20073;-64
2021/12/05 14:30:29;;;;;;;11.38;1.33;;;;;;;;;;5111097;28;20035;-64
2021/12/05 14:32:58;;;;;;;14.50;1.20;;;;;;;;;;5113384;28;20028;-65
2021/12/05 14:35:25;;;;;;;11.43;1.30;;;;;;;;;;5094379;28;20126;-64
2021/12/05 14:37:52;;;;;;;9.32;1.30;;;;;;;;;;5115084;28;20504;-65
2021/12/05 14:40:18;;;;;;;14.98;1.20;;;;;;;;;;5115670;28;20028;-64
2021/12/05 14:42:46;;;;;;;7.15;1.10;;;;;;;;;;5115176;28;20067;-63
2021/12/05 14:45:22;;;;;;;7.75;1.23;;;;;;;;;;5089036;28;20051;-67
2021/12/05 14:47:48;;;;;;;9.48;1.70;;;;;;;;;;5074846;28;20028;-65
2021/12/05 14:50:14;;;;;;;12.50;1.40;;;;;;;;;;5080537;28;20012;-64
2021/12/05 14:52:41;;;;;;;11.52;1.60;;;;;;;;;;5115391;28;20028;-64
2021/12/05 14:55:09;;;;;;;5.63;1.70;;;;;;;;;;5115225;28;20102;-63
2021/12/05 14:57:40;;;;;;;8.45;1.52;;;;;;;;;;5097027;28;20517;-65
2021/12/05 15:00:12;;;;;;;12.50;1.92;;;;;;;;;;5115093;28;20027;-65
2021/12/05 15:02:39;;;;;;;5.85;1.63;;;;;;;;;;5115141;28;20022;-65
2021/12/05 15:05:08;;;;;;;6.80;1.77;;;;;;;;;;5095729;28;20067;-64
2021/12/05 15:07:35;;;;;;;7.47;1.73;;;;;;;;;;5081726;28;20025;-64
2021/12/05 15:10:01;;;;;;;9.27;2.30;;;;;;;;;;5088638;28;20085;-66
2021/12/05 15:12:32;;;;;;;7.45;1.65;;;;;;;;;;5094848;28;20020;-65
2021/12/05 15:15:00;;;;;;;4.23;2.00;;;;;;;;;;5094114;28;20055;-65
2021/12/05 15:17:35;;;;;;;8.90;2.20;;;;;;;;;;5094538;28;20021;-64
2021/12/05 15:20:04;;;;;;;11.52;2.30;;;;;;;;;;5077726;28;20033;-64
2021/12/05 15:22:30;;;;;;;10.25;2.45;;;;;;;;;;5074408;28;20059;-65
2021/12/05 15:25:01;;;;;;;6.70;2.13;;;;;;;;;;5074274;28;20029;-64
2021/12/05 15:27:30;;;;;;;6.55;2.20;;;;;;;;;;5056536;28;20082;-63
2021/12/05 15:30:02;;;;;;;15.32;2.72;;;;;;;;;;5074456;28;20021;-65
2021/12/05 15:32:29;;;;;;;13.05;2.65;;;;;;;;;;5074496;28;20029;-64
2021/12/05 15:34:57;;;;;;;4.57;2.50;;;;;;;;;;5078491;28;20035;-63
2021/12/05 15:37:23;;;;;;;8.93;2.53;;;;;;;;;;5076628;28;20028;-64
2021/12/05 15:39:50;;;;;;;12.05;2.78;;;;;;;;;;5055899;28;20380;-64
2021/12/05 15:42:24;;;;;;;6.18;2.30;;;;;;;;;;5103746;28;20036;-64
2021/12/05 15:44:51;;;;;;;4.93;2.33;;;;;;;;;;5113459;28;20474;-64
2021/12/05 15:47:21;;;;;;;7.15;2.50;;;;;;;;;;5114544;28;20084;-64
2021/12/05 15:50:06;;;;;;;7.28;2.45;;;;;;;;;;5114620;28;20076;-64
2021/12/05 15:52:40;;;;;;;4.95;2.30;;;;;;;;;;5074022;28;20115;-63
2021/12/05 15:55:09;;;;;;;8.02;2.50;;;;;;;;;;5073625;28;20033;-64
2021/12/05 15:57:36;;;;;;;6.90;3.00;;;;;;;;;;5073884;28;20033;-64
2021/12/05 16:00:06;;;;;;;4.85;2.63;;;;;;;;;;5110414;28;20032;-66
2021/12/05 16:02:32;;;;;;;8.45;3.10;;;;;;;;;;5113885;28;20034;-69
2021/12/05 16:04:58;;;;;;;4.80;2.95;;;;;;;;;;5112704;28;20027;-64
2021/12/05 16:07:26;;;;;;;9.65;3.08;;;;;;;;;;5090740;28;20099;-64
2021/12/05 16:09:52;;;;;;;4.57;2.70;;;;;;;;;;5093238;28;20069;-64
2021/12/05 16:12:19;;;;;;;7.13;3.38;;;;;;;;;;5086588;28;20043;-63
2021/12/05 16:14:56;;;;;;;6.63;3.25;;;;;;;;;;5083605;28;20570;-63
2021/12/05 16:17:26;;;;;;;9.00;3.47;;;;;;;;;;5081800;28;20074;-64
2021/12/05 16:20:02;;;;;;;14.10;4.65;;;;;;;;;;5082133;28;20029;-64
2021/12/05 16:22:28;;;;;;;10.95;4.20;;;;;;;;;;5082642;28;20029;-65
2021/12/05 16:24:54;;;;;;;11.68;3.83;;;;;;;;;;5083763;28;20016;-63
2021/12/05 16:27:20;;;;;;;9.45;3.65;;;;;;;;;;5077320;28;20029;-64
2021/12/05 16:29:46;;;;;;;15.00;3.53;;;;;;;;;;5068232;28;20036;-63
2021/12/05 16:32:13;;;;;;;7.47;3.85;;;;;;;;;;5093381;28;20112;-63
2021/12/05 16:34:42;;;;;;;13.90;3.95;;;;;;;;;;5093386;28;20020;-65
2021/12/05 16:37:09;;;;;;;11.68;3.83;;;;;;;;;;5100495;28;20049;-65
2021/12/05 16:39:42;;;;;;;7.40;3.55;;;;;;;;;;5093096;28;20062;-64
2021/12/05 16:42:11;;;;;;;7.00;3.50;;;;;;;;;;5056841;28;20456;-64
2021/12/05 16:44:40;;;;;;;10.60;3.40;;;;;;;;;;5093315;28;20425;-64
2021/12/05 16:47:15;;;;;;;10.32;3.78;;;;;;;;;;5093492;28;20016;-65
2021/12/05 16:49:47;;;;;;;9.95;4.68;;;;;;;;;;5074374;28;20399;-71
2021/12/05 16:52:19;;;;;;;18.20;5.68;;;;;;;;;;5091527;28;20034;-63
2021/12/05 16:54:45;;;;;;;;;;;;;;;;;;5093557;28;20069;-64
2021/12/05 16:57:13;;;;;;;16.17;4.28;;;;;;;;;;5111803;28;19961;-62
2021/12/05 16:59:50;;;;;;;10.10;4.25;;;;;;;;;;5094010;28;20107;-60
2021/12/05 17:02:17;;;;;;;11.20;4.40;;;;;;;;;;5111329;28;20775;-62
2021/12/05 17:04:48;;;;;;;10.45;4.50;;;;;;;;;;5112525;28;20080;-62
2021/12/05 17:07:18;;;;;;;12.15;4.45;;;;;;;;;;5112237;28;20693;-63
2021/12/05 17:09:44;;;;;;;12.77;4.00;;;;;;;;;;5112199;28;20028;-62
2021/12/05 17:12:27;;;;;;;14.85;4.95;;;;;;;;;;5111835;28;20482;-63
2021/12/05 17:15:09;;;;;;;16.85;4.53;;;;;;;;;;5088093;28;20115;-59
2021/12/05 17:17:35;;;;;;;9.20;4.25;;;;;;;;;;5111443;28;20471;-60
2021/12/05 17:20:21;;;;;;;12.38;4.22;;;;;;;;;;5110095;28;20053;-60
2021/12/05 17:22:55;;;;;;;9.27;4.45;;;;;;;;;;5111446;28;20063;-60
2021/12/05 17:25:35;;;;;;;8.02;4.00;;;;;;;;;;5111235;28;20055;-60
2021/12/05 17:28:03;;;;;;;9.75;4.22;;;;;;;;;;5091391;28;20028;-60
2021/12/05 17:30:29;;;;;;;15.38;4.65;;;;;;;;;;5094320;28;20085;-62
2021/12/05 17:32:55;;;;;;;17.45;4.45;;;;;;;;;;5077334;28;20442;-59
2021/12/05 17:35:21;;;;;;;9.55;4.03;;;;;;;;;;5095326;28;20036;-60
2021/12/05 17:37:47;;;;;;;9.60;4.38;;;;;;;;;;5077230;28;20031;-60
2021/12/05 17:40:14;;;;;;;9.18;4.00;;;;;;;;;;5095587;28;20420;-61
2021/12/05 17:42:42;;;;;;;10.13;4.50;;;;;;;;;;5076468;28;20437;-62
2021/12/05 17:45:09;;;;;;;6.05;3.83;;;;;;;;;;5075273;28;20105;-64
2021/12/05 17:47:35;;;;;;;17.60;4.28;;;;;;;;;;5096035;28;20027;-63
2021/12/05 17:50:03;;;;;;;19.25;4.70;;;;;;;;;;5095712;28;20056;-67
2021/12/05 17:52:31;;;;;;;30.27;4.55;;;;;;;;;;5095048;28;20028;-62
2021/12/05 17:55:15;;;;;;;28.60;4.57;;;;;;;;;;5114645;27;20038;-67
2021/12/05 17:57:51;;;;;;;38.20;4.53;;;;;;;;;;5136470;27;20478;-66
2021/12/05 18:03:02;;;;;;;62.83;4.18;;;;;;;;;;5136311;27;20045;-63
2021/12/05 18:05:37;;;;;;;50.55;4.90;;;;;;;;;;5136352;27;20095;-61
2021/12/05 18:08:09;;;;;;;41.30;4.40;;;;;;;;;;5134771;27;20362;-62
2021/12/05 18:10:36;;;;;;;26.35;4.05;;;;;;;;;;5136023;27;20023;-62
2021/12/05 18:13:04;;;;;;;54.80;4.55;;;;;;;;;;5121945;27;20063;-64
2021/12/05 18:15:35;;;;;;;33.55;3.75;;;;;;;;;;5102017;28;20110;-61
2021/12/05 18:18:01;;;;;;;23.30;3.80;;;;;;;;;;5085577;28;20028;-65
2021/12/05 18:20:29;;;;;;;28.08;4.03;;;;;;;;;;5105476;28;20036;-66
2021/12/05 18:22:57;;;;;;;27.00;3.60;;;;;;;;;;5098651;28;20027;-66
2021/12/05 18:25:23;;;;;;;15.70;3.10;;;;;;;;;;5104131;28;20027;-66
2021/12/05 18:27:49;;;;;;;19.08;3.58;;;;;;;;;;5101504;28;20032;-64
2021/12/05 18:30:16;;;;;;;24.77;3.22;;;;;;;;;;5087147;28;20107;-66
2021/12/05 18:32:43;;;;;;;24.13;3.08;;;;;;;;;;5088381;28;20030;-64
2021/12/05 18:35:10;;;;;;;23.88;2.70;;;;;;;;;;5096599;28;20043;-65
2021/12/05 18:37:36;;;;;;;24.25;3.13;;;;;;;;;;5096407;28;20028;-65
2021/12/05 18:40:04;;;;;;;6.70;2.53;;;;;;;;;;5114438;28;20028;-64
2021/12/05 18:42:30;;;;;;;17.33;2.78;;;;;;;;;;5109524;27;20039;-66
2021/12/05 18:45:00;;;;;;;15.77;2.92;;;;;;;;;;5135986;27;20116;-64
2021/12/05 18:47:27;;;;;;;12.55;2.65;;;;;;;;;;5129471;27;20515;-64
2021/12/05 18:49:54;;;;;;;12.02;3.03;;;;;;;;;;5114551;28;20036;-64
2021/12/05 18:52:20;;;;;;;10.02;2.67;;;;;;;;;;5094293;28;20042;-63
2021/12/05 18:54:46;;;;;;;9.95;2.67;;;;;;;;;;5094985;28;20036;-63
2021/12/05 18:57:18;;;;;;;7.85;2.50;;;;;;;;;;5098892;27;20032;-64
2021/12/05 19:00:09;;;;;;;10.17;2.50;;;;;;;;;;5136130;27;20058;-64
2021/12/05 19:05:22;;;;;;;17.30;2.40;;;;;;;;;;5135003;27;20042;-63
2021/12/05 19:08:06;;;;;;;10.18;2.38;;;;;;;;;;5135225;27;20092;-62
2021/12/05 19:13:17;;;;;;;8.85;2.42;;;;;;;;;;5135055;27;20516;-63
2021/12/05 19:15:44;;;;;;;8.45;2.40;;;;;;;;;;5116596;27;20027;-62
2021/12/05 19:18:12;;;;;;;9.88;2.40;;;;;;;;;;5095457;28;20032;-63
2021/12/05 19:20:38;;;;;;;5.97;2.33;;;;;;;;;;5113931;28;20020;-63
2021/12/05 19:23:04;;;;;;;10.00;2.63;;;;;;;;;;5114124;28;20459;-64
2021/12/05 19:25:32;;;;;;;8.35;2.53;;;;;;;;;;5095869;28;20084;-62
2021/12/05 19:27:59;;;;;;;4.10;2.28;;;;;;;;;;5113782;28;20032;-64
2021/12/05 19:30:28;;;;;;;8.10;2.45;;;;;;;;;;5114012;28;20030;-64
2021/12/05 19:32:55;;;;;;;11.32;2.42;;;;;;;;;;5123907;27;20015;-64
2021/12/05 19:35:22;;;;;;;6.05;1.80;;;;;;;;;;5134387;27;20035;-63
2021/12/05 19:37:49;;;;;;;8.65;2.28;;;;;;;;;;5134353;27;20020;-65
2021/12/05 19:40:17;;;;;;;4.25;2.10;;;;;;;;;;5133186;27;20027;-65
2021/12/05 19:42:44;;;;;;;6.70;2.45;;;;;;;;;;5127806;27;20039;-63
2021/12/05 19:45:11;;;;;;;6.05;2.42;;;;;;;;;;5113545;28;20383;-64
2021/12/05 19:47:37;;;;;;;15.93;2.53;;;;;;;;;;5113504;28;20551;-64
2021/12/05 19:50:04;;;;;;;5.38;2.17;;;;;;;;;;5111938;28;20016;-64
2021/12/05 19:52:30;;;;;;;7.65;2.13;;;;;;;;;;5074476;28;20490;-64
2021/12/05 19:54:56;;;;;;;5.63;2.40;;;;;;;;;;5092976;28;20157;-64
2021/12/05 19:57:22;;;;;;;3.83;1.85;;;;;;;;;;5074697;28;20127;-65
2021/12/05 19:59:48;;;;;;;3.25;1.90;;;;;;;;;;5095720;28;20102;-64
2021/12/05 20:02:14;;;;;;;4.10;1.88;;;;;;;;;;5113244;28;20576;-64
2021/12/05 20:04:43;;;;;;;6.65;2.20;;;;;;;;;;5113271;28;20035;-65